Flight Track Log - Related Links

Times and Time Zones

All times are in EDT time to prevent confusion due to time zone crossing. See the ASQ6041 flight status page for this flight to view local times or setup timezone preferences in your user account.

Time Position Orientation Groundspeed Altitude Reporting Facility
EDT Latitude Longitude Course Direction KTS MPH feet Rate Location/Type
Tue 12:11:01 PM 39.9219 -104.6797 72° East 203 234 7,500  Level Denver Center
Tue 12:13:05 PM 39.9189 -104.4864 91° East 282 325 10,800 1,484 Climbing Denver Center
Tue 12:14:00 PM 39.8667 -104.0118 90° East  Level FlightAware Approximate
Tue 12:14:07 PM 39.8964 -104.3794 105° East 316 364 12,100  Level Denver Center
Tue 12:15:00 PM 39.8667 -103.8805 90° East  Level FlightAware Approximate
Tue 12:15:09 PM 39.8939 -104.2486 91° East 339 390 13,400  Level Denver Center
Tue 12:16:00 PM 39.8787 -103.7518 72° East  Level FlightAware Approximate
Tue 12:16:11 PM 39.8914 -104.1181 91° East 360 414 14,400  Level Denver Center
Tue 12:17:13 PM 39.8883 -103.9711 92° East 379 436 15,900 1,210 Climbing Denver Center
Tue 12:18:15 PM 39.8847 -103.8325 92° East 384 442 16,900 968 Climbing Denver Center
Tue 12:19:17 PM 39.8869 -103.6886 89° East 391 450 17,900 1,210 Climbing Denver Center
Tue 12:20:19 PM 39.9050 -103.5489 80° East 390 449 19,400 1,500 Climbing Denver Center
Tue 12:21:21 PM 39.9211 -103.4094 81° East 391 450 21,000 1,452 Climbing Denver Center
Tue 12:22:23 PM 39.9353 -103.2708 82° East 387 445 22,400 1,355 Climbing Denver Center
Tue 12:23:25 PM 39.9544 -103.1058 81° East 385 443 23,800 1,161 Climbing Denver Center
Tue 12:24:27 PM 39.9706 -102.9661 81° East 390 449 24,800 968 Climbing Denver Center
Tue 12:25:29 PM 39.9917 -102.8258 79° East 395 455 25,800 1,161 Climbing Denver Center
Tue 12:26:31 PM 40.0172 -102.6764 77° East 393 452 27,200 1,161 Climbing Denver Center
Tue 12:27:33 PM 40.0394 -102.5425 78° East 394 453 28,200 1,161 Climbing Denver Center
Tue 12:28:35 PM 40.0669 -102.3864 77° East 396 456 29,600 1,161 Climbing Denver Center
Tue 12:29:37 PM 40.0886 -102.2531 78° East 393 452 30,600 672 Climbing Denver Center
Tue 12:30:40 PM 40.1144 -102.0925 78° East 405 466 31,000 192 Climbing Denver Center
Tue 12:31:42 PM 40.1392 -101.9456 78° East 430 495 31,000  Level Denver Center
Tue 12:32:44 PM 40.1672 -101.7639 79° East 456 525 31,000  Level Denver Center
Tue 12:33:46 PM 40.1928 -101.6047 78° East 467 537 31,000  Level Denver Center
Tue 12:34:48 PM 40.2225 -101.4144 78° East 478 550 31,000  Level Denver Center
Tue 12:35:50 PM 40.2489 -101.2497 78° East 482 555 31,000  Level Denver Center
Tue 12:36:52 PM 40.2769 -101.0558 79° East 487 560 31,000 97 Level Denver Center
Tue 12:37:54 PM 40.3033 -100.8900 78° East 489 563 31,200 726 Climbing Denver Center
Tue 12:38:56 PM 40.3308 -100.7031 79° East 475 547 32,500 871 Climbing Denver Center
Tue 12:39:58 PM 40.3539 -100.5458 79° East 465 535 33,000 242 Climbing Denver Center
Tue 12:41:00 PM 40.3822 -100.3606 79° East 467 537 33,000  Level Denver Center
Tue 12:42:02 PM 40.4047 -100.1981 80° East 475 547 33,000  Level Denver Center
Tue 12:43:04 PM 40.4328 -100.0058 79° East 481 554 33,000  Level Denver Center
Tue 12:44:06 PM 40.4536 -99.8569 80° East 480 552 33,000  Level Denver Center
Tue 12:45:08 PM 40.4833 -99.6503 79° East 481 554 33,000  Level Denver Center
Tue 12:46:10 PM 40.5081 -99.4789 79° East 480 552 33,000  Level Denver Center
Tue 12:47:12 PM 40.5308 -99.3064 80° East 481 554 33,000  Level Denver Center
Tue 12:48:14 PM 40.5544 -99.1361 80° East 477 549 33,000  Level Denver Center
Tue 12:49:05 PM 40.5722 -99.0017 80° East 478 550 33,000  Level Minneapolis Center
Tue 12:50:07 PM 40.5989 -98.7978 80° East 476 548 33,000  Level Minneapolis Center
Tue 12:51:09 PM 40.6211 -98.6275 80° East 476 548 33,000 -290 Level Minneapolis Center
Tue 12:52:11 PM 40.6433 -98.4569 80° East 477 549 32,400 -1,597 Descending Minneapolis Center
Tue 12:53:13 PM 40.6653 -98.2906 80° East 470 541 29,700 -2,710 Descending Minneapolis Center
Tue 12:54:15 PM 40.6864 -98.1303 80° East 456 525 26,800 -2,710 Descending Minneapolis Center
Tue 12:55:17 PM 40.7094 -97.9394 81° East 445 512 24,100 -2,468 Descending Minneapolis Center
Tue 12:56:19 PM 40.7294 -97.7764 81° East 449 517 21,700 -2,419 Descending Minneapolis Center
Tue 12:57:21 PM 40.7492 -97.6194 81° East 441 507 19,100 -2,419 Descending Minneapolis Center
Tue 12:58:23 PM 40.7669 -97.4681 81° East 426 490 16,700 -2,400 Descending Minneapolis Center
Tue 12:59:26 PM 40.7850 -97.3136 81° East 416 479 14,100 -2,064 Descending Minneapolis Center
Tue 01:00:28 PM 40.8028 -97.1794 80° East 382 440 12,400 -1,742 Descending Minneapolis Center
Tue 01:01:30 PM 40.8150 -97.0683 82° East 321 369 10,500 -2,661 Descending Minneapolis Center
Tue 01:02:32 PM 40.8292 -96.9442 81° East 290 334 6,900 -2,855 Descending Minneapolis Center
Tue 01:03:34 PM 40.8817 -96.8797 43° Northeast 266 306 4,600 -1,466 Descending Minneapolis Center
Tue 01:04:43 PM 40.9300 -96.8139 46° Northeast 230 265 3,700 -912 Descending Minneapolis Center
Tue 01:05:39 PM 40.9383 -96.7639 78° East 210 242 2,700 -885 Descending Minneapolis Center
Tue 01:06:45 PM 40.8806 -96.7581 176° South 136 157 1,900 -484 Descending Minneapolis Center
Tue 01:07:43 PM 40.8581 -96.7631 190° South 150 173 1,700 -207 Descending Minneapolis Center

Login

Don't have an account? Register now (free) for customized features, flight alerts, and more!